createdAt,value
2022-11-03T08:29:47.928Z,95.17
2022-11-03T08:30:47.792Z,94.76
2022-11-03T08:31:47.745Z,94.76
2022-11-03T08:32:47.766Z,94.04
2022-11-03T08:33:47.734Z,94.76
2022-11-03T08:34:47.718Z,93.93
2022-11-03T08:35:47.720Z,93.52
2022-11-03T08:36:47.784Z,93.93
2022-11-03T08:37:47.703Z,93.73
2022-11-03T08:38:47.684Z,93.68
2022-11-03T08:39:47.700Z,93.68
2022-11-03T08:40:51.372Z,93.59
2022-11-03T08:41:48.637Z,93.17
2022-11-03T08:42:47.639Z,92.97
2022-11-03T08:43:47.641Z,92.35
2022-11-03T08:44:47.645Z,91.84
2022-11-03T08:45:47.634Z,91.42
2022-11-03T08:46:47.591Z,92.10
2022-11-03T08:47:47.583Z,92.41
2022-11-03T08:48:47.605Z,92.61
2022-11-03T08:49:47.566Z,93.02
2022-11-03T08:50:47.548Z,92.93
2022-11-03T08:51:47.554Z,92.82
2022-11-03T08:52:47.531Z,91.86
2022-11-03T08:53:47.543Z,92.36
2022-11-03T08:54:47.539Z,92.36
2022-11-03T08:55:47.490Z,91.96
2022-11-03T08:56:47.509Z,91.96
2022-11-03T08:57:47.484Z,91.96
2022-11-03T08:58:47.466Z,91.96
2022-11-03T08:59:47.446Z,92.47
2022-11-03T09:00:47.450Z,91.03
2022-11-03T09:01:47.503Z,90.99
2022-11-03T09:02:47.432Z,90.79
2022-11-03T09:03:47.576Z,90.89
2022-11-03T09:04:47.391Z,90.37
2022-11-03T09:05:47.385Z,90.28
2022-11-03T09:06:47.402Z,89.97
2022-11-03T09:10:48.329Z,90.44
2022-11-03T09:11:47.361Z,90.54
2022-11-03T09:12:47.317Z,90.54
2022-11-03T09:13:47.320Z,90.84
2022-11-03T09:14:47.298Z,90.19
2022-11-03T09:15:47.297Z,91.05
2022-11-03T09:16:47.277Z,90.81
2022-11-03T09:17:47.351Z,90.19
2022-11-03T09:18:47.258Z,90.19
2022-11-03T09:19:47.246Z,89.98
2022-11-03T09:20:47.252Z,89.12
2022-11-03T09:21:47.263Z,89.03
2022-11-03T09:22:47.206Z,88.92
2022-11-03T09:23:47.194Z,88.71
2022-11-03T09:24:47.199Z,88.92
2022-11-03T09:25:47.195Z,88.57
2022-11-03T09:26:47.205Z,88.47
2022-11-03T09:27:47.158Z,87.04
2022-11-03T09:28:47.156Z,87.55
2022-11-03T09:30:11.569Z,87.61
2022-11-03T09:30:48.181Z,88.12
2022-11-03T09:31:47.135Z,87.71
2022-11-03T09:32:47.104Z,86.79
2022-11-03T09:33:47.101Z,87.51
2022-11-03T09:34:47.075Z,87.16
2022-11-03T09:35:47.120Z,87.06
2022-11-03T09:36:52.993Z,86.35
2022-11-03T09:37:48.044Z,86.85
2022-11-03T09:38:47.045Z,86.10
2022-11-03T09:39:47.035Z,86.30
2022-11-03T09:41:57.994Z,85.49
2022-11-03T09:42:48.014Z,85.28
2022-11-03T09:43:47.001Z,85.35
2022-11-03T09:44:46.962Z,85.14
2022-11-03T09:45:46.969Z,83.81
2022-11-03T09:46:46.956Z,83.61
2022-11-03T09:47:46.954Z,83.92
2022-11-03T09:48:46.936Z,84.33
2022-11-03T09:49:46.932Z,84.22
2022-11-03T09:50:46.902Z,84.59
2022-11-03T09:51:46.900Z,84.33
2022-11-03T09:52:51.296Z,83.37
2022-11-03T09:53:46.890Z,84.18
2022-11-03T09:54:46.866Z,84.18
2022-11-03T09:55:46.898Z,84.08
2022-11-03T09:56:46.850Z,83.67
2022-11-03T09:57:46.848Z,83.23
2022-11-03T09:58:51.384Z,83.33
2022-11-03T09:59:47.802Z,82.71
2022-11-03T10:00:46.898Z,82.61
2022-11-03T10:01:47.066Z,82.71
2022-11-03T10:02:46.769Z,82.10
2022-11-03T10:03:46.781Z,82.41
2022-11-03T10:04:46.745Z,82.00
2022-11-03T10:05:46.772Z,81.39
2022-11-03T10:06:46.753Z,81.70
2022-11-03T10:07:46.802Z,81.80
2022-11-03T10:08:46.735Z,81.18
2022-11-03T10:09:46.718Z,81.59
2022-11-03T10:10:47.961Z,81.80
2022-11-03T10:12:03.269Z,82.31
2022-11-03T10:12:46.696Z,82.51
2022-11-03T10:13:46.657Z,81.76
2022-11-03T10:14:46.685Z,81.80
2022-11-03T10:15:46.647Z,81.59
2022-11-03T10:16:52.323Z,81.18
2022-11-03T10:17:47.620Z,81.09
2022-11-03T10:18:46.605Z,81.66
2022-11-03T10:19:46.640Z,81.76
2022-11-03T10:20:46.600Z,81.35
2022-11-03T10:21:46.590Z,81.15
2022-11-03T10:22:46.579Z,81.25
2022-11-03T10:23:46.548Z,80.37
2022-11-03T10:24:46.535Z,80.54
2022-11-03T10:25:46.551Z,81.29
2022-11-03T10:26:46.515Z,81.09
2022-11-03T10:27:46.511Z,81.56
2022-11-03T10:28:46.505Z,81.56
2022-11-03T10:29:52.123Z,81.35
2022-11-03T10:31:09.976Z,81.35
2022-11-03T10:31:47.465Z,81.04
2022-11-03T10:32:46.453Z,81.15
2022-11-03T10:33:46.447Z,80.02
2022-11-03T10:34:46.446Z,80.33
2022-11-03T10:35:46.423Z,79.93
2022-11-03T10:36:50.437Z,81.04
2022-11-03T10:37:46.433Z,80.54
2022-11-03T10:38:46.395Z,80.43
2022-11-03T10:39:46.386Z,80.02
2022-11-03T10:40:48.340Z,80.43
2022-11-03T10:41:46.367Z,80.02
2022-11-03T10:42:46.344Z,80.43
2022-11-03T10:43:46.349Z,80.64
2022-11-03T10:44:46.334Z,80.13
2022-11-03T10:45:46.315Z,80.13
2022-11-03T10:46:50.978Z,81.35
2022-11-03T10:47:47.327Z,79.62
2022-11-03T10:48:46.300Z,80.13
2022-11-03T10:49:46.278Z,81.35
2022-11-03T10:50:46.260Z,80.43
2022-11-03T10:51:46.275Z,79.99
2022-11-03T10:52:46.243Z,80.50
2022-11-03T10:53:46.279Z,81.15
2022-11-03T10:54:46.227Z,80.40
2022-11-03T10:55:46.213Z,79.99
2022-11-03T10:56:46.282Z,79.79
2022-11-03T10:57:50.550Z,79.99
2022-11-03T10:58:47.230Z,79.79
2022-11-03T10:59:46.168Z,78.87
2022-11-03T11:00:46.257Z,79.27
2022-11-03T11:01:46.339Z,78.87
2022-11-03T11:02:46.124Z,78.80
2022-11-03T11:03:46.202Z,79.52
2022-11-03T11:04:46.184Z,80.02
2022-11-03T11:05:46.123Z,80.94
2022-11-03T11:06:46.206Z,80.54
2022-11-03T11:07:54.692Z,80.23
2022-11-03T11:08:59.654Z,80.13
2022-11-03T11:09:47.072Z,79.66
2022-11-03T11:10:55.897Z,80.57
2022-11-03T11:11:53.944Z,80.16
2022-11-03T11:12:46.048Z,81.35
2022-11-03T11:13:46.040Z,80.54
2022-11-03T11:14:46.003Z,80.43
2022-11-03T11:15:45.995Z,80.23
2022-11-03T11:16:46.032Z,81.29
2022-11-03T11:17:45.986Z,79.62
2022-11-03T11:18:45.969Z,80.37
2022-11-03T11:19:45.945Z,80.54
2022-11-03T11:20:45.932Z,80.88
2022-11-03T11:21:45.931Z,80.98
2022-11-03T11:22:45.955Z,80.16
2022-11-03T11:23:45.945Z,79.75
2022-11-03T11:24:45.918Z,79.25
2022-11-03T11:25:45.892Z,78.84
2022-11-03T11:26:45.870Z,79.72
2022-11-03T11:27:45.885Z,80.16
2022-11-03T11:28:45.851Z,80.68
2022-11-03T11:29:45.853Z,81.49
2022-11-03T11:30:45.833Z,80.47
2022-11-03T11:31:45.834Z,80.37
2022-11-03T11:32:45.838Z,80.57
2022-11-03T11:33:45.805Z,80.57
2022-11-03T11:34:45.790Z,80.68
2022-11-03T11:35:45.777Z,80.47
2022-11-03T11:36:45.777Z,80.07
2022-11-03T11:37:45.793Z,80.23
2022-11-03T11:38:45.755Z,80.54
2022-11-03T11:39:45.750Z,80.37
2022-11-03T11:40:45.734Z,79.96
2022-11-03T11:41:45.732Z,80.33
2022-11-03T11:42:45.698Z,80.23
2022-11-03T11:43:45.714Z,80.02
2022-11-03T11:44:45.678Z,81.35
2022-11-03T11:45:45.684Z,81.35
2022-11-03T11:46:45.683Z,80.02
2022-11-03T11:47:45.660Z,79.62
2022-11-03T11:48:45.657Z,80.60
2022-11-03T11:49:45.628Z,80.19
2022-11-03T11:50:45.640Z,79.79
2022-11-03T11:51:45.667Z,80.09
2022-11-03T11:52:45.601Z,79.99
2022-11-03T11:53:48.169Z,80.09
2022-11-03T11:54:46.579Z,80.40
2022-11-03T11:55:45.605Z,79.58
2022-11-03T11:56:45.602Z,78.87
2022-11-03T11:57:45.562Z,78.93
2022-11-03T11:58:45.537Z,79.75
2022-11-03T11:59:45.514Z,79.75
2022-11-03T12:00:45.588Z,79.64
2022-11-03T12:01:45.579Z,79.27
2022-11-03T12:02:45.484Z,79.54
2022-11-03T12:03:45.550Z,78.83
2022-11-03T12:04:45.480Z,80.46
2022-11-03T12:05:45.496Z,78.83
2022-11-03T12:07:45.442Z,80.05
2022-11-03T12:08:45.420Z,79.14
2022-11-03T12:09:45.424Z,78.66
2022-11-03T12:10:45.527Z,79.14
2022-11-03T12:11:46.117Z,79.64
2022-11-03T12:12:45.412Z,79.24
2022-11-03T12:13:45.376Z,78.63
2022-11-03T12:14:45.352Z,79.24
2022-11-03T12:15:45.374Z,79.14
2022-11-03T12:16:45.349Z,79.24
2022-11-03T12:17:45.353Z,79.54
2022-11-03T12:18:50.362Z,79.54
2022-11-03T12:19:46.309Z,79.24
2022-11-03T12:21:58.806Z,79.24
2022-11-03T12:23:06.279Z,78.93
2022-11-03T12:23:58.710Z,79.10
2022-11-03T12:24:58.674Z,79.20
2022-11-03T12:25:58.636Z,79.10
2022-11-03T12:26:58.681Z,79.00
2022-11-03T12:27:58.620Z,78.89
2022-11-03T12:28:58.598Z,79.61
2022-11-03T12:29:58.610Z,79.37
2022-11-03T12:31:58.594Z,78.59
2022-11-03T12:32:58.544Z,79.06
2022-11-03T12:33:58.547Z,79.27
2022-11-03T12:34:58.584Z,79.71
2022-11-03T12:35:58.524Z,79.47
2022-11-03T12:36:58.511Z,79.47
2022-11-03T12:37:58.493Z,78.08
2022-11-03T12:38:58.510Z,79.57
2022-11-03T12:39:58.487Z,78.86
2022-11-03T12:40:58.486Z,78.96
2022-11-03T12:41:58.462Z,78.86
2022-11-03T12:42:58.453Z,78.86
2022-11-03T12:43:58.532Z,79.43
2022-11-03T12:44:58.446Z,79.13
2022-11-03T12:45:58.418Z,78.11
2022-11-03T12:46:58.419Z,78.31
2022-11-03T12:47:58.426Z,78.72
2022-11-03T12:48:58.374Z,77.70
2022-11-03T12:49:58.368Z,76.99
2022-11-03T12:50:58.383Z,77.60
2022-11-03T12:51:58.424Z,78.31
2022-11-03T12:52:58.350Z,78.21
2022-11-03T12:53:58.333Z,78.21
2022-11-03T12:54:58.329Z,78.31
2022-11-03T12:55:58.347Z,78.15
2022-11-03T12:56:58.302Z,78.41
2022-11-03T12:57:58.282Z,77.29
2022-11-03T12:58:58.291Z,78.52
2022-11-03T12:59:58.272Z,78.72
2022-11-03T13:01:01.879Z,79.33
2022-11-03T13:01:58.418Z,78.08
2022-11-03T13:02:58.307Z,78.58
2022-11-03T13:03:58.215Z,78.11
2022-11-03T13:04:58.237Z,77.77
2022-11-03T13:05:58.193Z,78.52
2022-11-03T13:06:58.181Z,78.21
2022-11-03T13:07:58.199Z,78.01
2022-11-03T13:08:58.159Z,78.31
2022-11-03T13:09:58.167Z,78.52
2022-11-03T13:10:58.140Z,78.01
2022-11-03T13:11:58.167Z,77.50
2022-11-03T13:12:58.152Z,78.01
2022-11-03T13:13:58.113Z,77.81
2022-11-03T13:14:58.095Z,78.05
2022-11-03T13:15:58.101Z,78.45
2022-11-03T13:16:58.093Z,79.13
2022-11-03T13:18:12.865Z,78.86
2022-11-03T13:18:59.067Z,78.86
2022-11-03T13:19:58.157Z,78.45
2022-11-03T13:20:58.048Z,78.45
2022-11-03T13:21:58.065Z,78.66
2022-11-03T13:22:58.031Z,79.16
2022-11-03T13:23:58.021Z,79.27
2022-11-03T13:24:58.047Z,79.47
2022-11-03T13:25:58.105Z,78.25
2022-11-03T13:26:57.966Z,78.55
2022-11-03T13:27:57.960Z,79.16
2022-11-03T13:28:58.004Z,78.80
2022-11-03T13:29:57.947Z,79.30
2022-11-03T13:30:57.948Z,79.16
2022-11-03T13:31:57.940Z,77.98
2022-11-03T13:32:57.911Z,78.49
2022-11-03T13:33:57.911Z,78.89
2022-11-03T13:34:57.938Z,79.71
2022-11-03T13:35:57.963Z,79.61
2022-11-03T13:36:57.870Z,78.69
2022-11-03T13:37:57.842Z,79.50
2022-11-03T13:38:57.865Z,79.30
2022-11-03T13:39:57.848Z,79.61
2022-11-03T13:41:03.644Z,79.95
2022-11-03T13:41:58.823Z,78.73
2022-11-03T13:43:05.821Z,79.64
2022-11-03T13:43:57.930Z,78.93
2022-11-03T13:44:57.851Z,79.44
2022-11-03T13:46:05.582Z,79.95
2022-11-03T13:46:57.871Z,80.16
2022-11-03T13:48:47.500Z,79.75
2022-11-03T13:51:09.216Z,80.36
2022-11-03T13:52:16.717Z,79.64
2022-11-03T13:56:12.802Z,79.85
2022-11-03T13:59:25.965Z,80.05
2022-11-03T14:00:09.992Z,81.27
2022-11-03T14:01:09.095Z,79.95
2022-11-03T14:06:19.287Z,80.97
2022-11-03T14:07:29.016Z,81.17
2022-11-03T14:08:26.874Z,80.26
2022-11-03T14:09:19.282Z,81.38
2022-11-03T14:10:19.285Z,80.66
2022-11-03T14:11:19.209Z,80.93
2022-11-03T14:12:19.199Z,80.42
2022-11-03T14:13:29.096Z,81.38
2022-11-03T14:14:19.263Z,81.27
2022-11-03T14:15:26.851Z,81.24
2022-11-03T14:16:26.841Z,80.63
2022-11-03T14:17:19.193Z,81.24
2022-11-03T14:18:19.165Z,81.07
2022-11-03T14:19:19.125Z,80.87
2022-11-03T14:20:19.184Z,80.97
2022-11-03T14:21:19.137Z,81.07
2022-11-03T14:22:19.103Z,80.97
2022-11-03T14:23:19.093Z,80.97
2022-11-03T14:24:19.142Z,80.97
2022-11-03T14:25:19.049Z,81.48
2022-11-03T14:26:39.999Z,81.48
2022-11-03T14:27:20.190Z,81.17
2022-11-03T14:28:25.869Z,81.07
2022-11-03T14:29:20.003Z,81.88
2022-11-03T14:30:18.987Z,81.48
2022-11-03T14:31:18.980Z,81.88
2022-11-03T14:32:19.004Z,81.48
2022-11-03T14:33:18.966Z,81.58
2022-11-03T14:34:19.080Z,81.99
2022-11-03T14:35:18.939Z,81.72
2022-11-03T14:36:18.923Z,81.48
2022-11-03T14:37:27.607Z,82.03
2022-11-03T14:38:18.949Z,81.41
2022-11-03T14:39:18.909Z,81.93
2022-11-03T14:40:18.930Z,82.23
2022-11-03T14:41:27.496Z,82.54
2022-11-03T14:42:26.554Z,82.78
2022-11-03T14:43:18.957Z,82.37
2022-11-03T14:44:28.599Z,81.96
2022-11-03T14:45:28.876Z,82.98
2022-11-03T14:46:27.508Z,82.17
2022-11-03T14:47:29.267Z,82.78
2022-11-03T14:49:29.252Z,82.78
2022-11-03T14:51:42.550Z,82.37
2022-11-03T14:52:51.855Z,81.93
2022-11-03T14:53:42.447Z,82.88
2022-11-03T14:54:42.412Z,82.88
2022-11-03T14:55:42.424Z,82.88
2022-11-03T14:56:42.414Z,82.78
2022-11-03T14:57:46.585Z,81.86
2022-11-03T14:58:42.887Z,81.76
2022-11-03T14:59:42.668Z,82.88
2022-11-03T15:00:45.126Z,82.27
2022-11-03T15:01:42.492Z,82.31
2022-11-03T15:02:45.973Z,82.51
2022-11-03T15:03:43.193Z,82.82
2022-11-03T15:04:42.771Z,82.61
2022-11-03T15:05:43.651Z,82.71
2022-11-03T15:06:49.345Z,82.41
2022-11-03T15:07:43.642Z,82.31
2022-11-03T15:08:43.052Z,82.51
2022-11-03T15:09:42.468Z,82.31
2022-11-03T15:10:57.310Z,83.02
2022-11-03T15:11:42.284Z,82.71
2022-11-03T15:12:42.289Z,83.16
2022-11-03T15:13:45.976Z,82.45
2022-11-03T15:14:43.261Z,82.96
2022-11-03T15:15:42.430Z,82.96
2022-11-03T15:16:43.955Z,82.86
2022-11-03T15:17:42.681Z,83.57
2022-11-03T15:18:44.451Z,82.89
2022-11-03T15:19:42.160Z,83.67
2022-11-03T15:20:42.232Z,83.16
2022-11-03T15:21:42.329Z,83.57
2022-11-03T15:25:43.110Z,84.33
2022-11-03T15:26:42.112Z,84.33
2022-11-03T15:27:42.078Z,84.74
2022-11-03T15:28:54.306Z,85.04
2022-11-03T15:29:42.112Z,85.18
2022-11-03T15:31:53.563Z,85.59
2022-11-03T15:32:53.627Z,85.45
2022-11-03T15:33:53.541Z,85.38
2022-11-03T15:34:53.486Z,85.35
2022-11-03T15:35:53.506Z,85.08
2022-11-03T15:36:53.412Z,85.28
2022-11-03T15:37:53.385Z,85.69
2022-11-03T15:38:53.472Z,86.00
2022-11-03T15:39:57.184Z,86.41
2022-11-03T15:40:54.356Z,86.51
2022-11-03T15:41:53.346Z,86.51
2022-11-03T15:42:53.371Z,85.89
2022-11-03T15:43:53.336Z,86.20
2022-11-03T15:44:53.333Z,86.71
2022-11-03T15:45:53.303Z,86.82
2022-11-03T15:46:55.302Z,86.71
2022-11-03T15:49:11.051Z,86.91
2022-11-03T15:51:22.172Z,86.26
2022-11-03T15:52:33.510Z,86.41
2022-11-03T15:54:41.301Z,86.91
2022-11-03T15:56:47.355Z,86.71
2022-11-03T16:00:33.138Z,87.63
2022-11-03T16:01:35.089Z,87.57
2022-11-03T16:04:56.721Z,87.57
2022-11-03T16:07:46.621Z,87.57
2022-11-03T16:11:06.626Z,88.49
2022-11-03T16:12:06.662Z,87.57
2022-11-03T16:13:06.498Z,88.39
2022-11-03T16:14:06.448Z,87.88
2022-11-03T16:15:06.453Z,87.73
2022-11-03T16:16:15.184Z,86.91
2022-11-03T16:18:46.151Z,87.12
2022-11-03T16:20:55.134Z,87.02
2022-11-03T16:23:06.343Z,86.71
2022-11-03T16:24:14.525Z,86.71
2022-11-03T16:25:08.871Z,86.71
2022-11-03T16:27:17.449Z,87.02
2022-11-03T16:28:17.411Z,87.32
2022-11-03T16:29:17.433Z,87.53
2022-11-03T16:30:17.421Z,87.12
2022-11-03T16:31:17.419Z,87.02
2022-11-03T16:32:17.385Z,87.02
2022-11-03T16:33:17.385Z,87.53
2022-11-03T16:34:17.396Z,87.32
2022-11-03T16:35:17.341Z,87.12
2022-11-03T16:36:17.352Z,86.61
2022-11-03T16:37:17.332Z,87.43
2022-11-03T16:38:17.325Z,87.53
2022-11-03T16:39:17.313Z,87.47
2022-11-03T16:40:19.682Z,88.24
2022-11-03T16:41:17.330Z,87.67
2022-11-03T16:42:17.289Z,87.77
2022-11-03T16:43:17.273Z,87.67
2022-11-03T16:44:17.243Z,87.47
2022-11-03T16:45:17.258Z,87.26
2022-11-03T16:46:25.828Z,86.82
2022-11-03T16:47:17.381Z,86.51
2022-11-03T16:48:17.237Z,86.36
2022-11-03T16:49:17.238Z,86.71
2022-11-03T16:50:17.204Z,86.61
2022-11-03T16:51:17.192Z,86.51
2022-11-03T16:52:17.181Z,86.91
2022-11-03T16:53:17.168Z,87.12
2022-11-03T16:54:17.196Z,86.82
2022-11-03T16:55:25.032Z,87.02
2022-11-03T16:56:24.996Z,87.02
2022-11-03T16:57:17.227Z,87.02
2022-11-03T16:58:17.118Z,86.61
2022-11-03T16:59:17.104Z,87.12
2022-11-03T17:00:17.147Z,87.67
2022-11-03T17:01:17.184Z,88.29
2022-11-03T17:02:17.130Z,87.12
2022-11-03T17:03:17.062Z,87.12
2022-11-03T17:04:28.228Z,86.91
2022-11-03T17:05:17.060Z,87.12
2022-11-03T17:06:17.006Z,87.47
2022-11-03T17:07:17.050Z,87.67
2022-11-03T17:08:46.720Z,87.06
2022-11-03T17:09:17.974Z,87.67
2022-11-03T17:10:17.250Z,87.67
2022-11-03T17:11:16.947Z,86.96
2022-11-03T17:12:17.025Z,87.77
2022-11-03T17:13:17.318Z,88.08
2022-11-03T17:14:16.917Z,88.29
2022-11-03T17:15:16.914Z,87.88
2022-11-03T17:16:16.909Z,87.16
2022-11-03T17:17:16.911Z,87.77
2022-11-03T17:18:16.901Z,87.16
2022-11-03T17:19:16.865Z,87.67
2022-11-03T17:20:17.014Z,87.16
2022-11-03T17:21:16.855Z,86.96
2022-11-03T17:22:16.860Z,87.26
2022-11-03T17:23:16.828Z,87.37
2022-11-03T17:24:16.900Z,87.47
2022-11-03T17:25:17.427Z,87.92
2022-11-03T17:26:16.898Z,87.77
2022-11-03T17:27:16.811Z,87.88
2022-11-03T17:28:16.779Z,87.57
2022-11-03T17:29:16.852Z,87.98
2022-11-03T17:30:16.835Z,86.96
2022-11-03T17:31:17.252Z,87.26
2022-11-03T17:32:31.466Z,87.06
2022-11-03T17:33:32.240Z,88.43
2022-11-03T17:34:16.715Z,88.29
2022-11-03T17:35:16.752Z,87.06
2022-11-03T17:36:25.563Z,87.37
2022-11-03T17:37:24.390Z,87.16
2022-11-03T17:38:24.909Z,87.06
2022-11-03T17:39:16.756Z,87.47
2022-11-03T17:40:16.705Z,87.06
2022-11-03T17:41:19.002Z,86.85
2022-11-03T17:42:16.654Z,86.85
2022-11-03T17:43:16.617Z,86.96
2022-11-03T17:44:26.467Z,86.96
2022-11-03T17:45:16.649Z,86.44
2022-11-03T17:46:16.765Z,87.37
2022-11-03T17:47:16.704Z,87.16
2022-11-03T17:48:16.733Z,87.77
2022-11-03T17:49:16.673Z,87.26
2022-11-03T17:50:16.661Z,86.96
2022-11-03T17:51:16.682Z,87.16
2022-11-03T17:52:16.916Z,86.85
2022-11-03T17:53:16.608Z,86.65
2022-11-03T17:54:16.509Z,86.55
2022-11-03T17:55:17.356Z,86.85
2022-11-03T17:56:30.834Z,86.55
2022-11-03T17:57:16.473Z,86.96
2022-11-03T17:58:16.529Z,86.65
2022-11-03T17:59:16.465Z,86.76
2022-11-03T18:00:16.454Z,86.76
2022-11-03T18:01:16.562Z,86.14
2022-11-03T18:02:16.499Z,86.96
2022-11-03T18:03:16.396Z,86.96
2022-11-03T18:04:16.431Z,86.24
2022-11-03T18:05:20.201Z,86.24
2022-11-03T18:06:17.366Z,86.35
2022-11-03T18:07:16.376Z,86.44
2022-11-03T18:08:16.361Z,86.44
2022-11-03T18:09:16.329Z,86.14
2022-11-03T18:10:16.335Z,86.76
2022-11-03T18:11:16.301Z,86.44
2022-11-03T18:12:16.300Z,85.94
2022-11-03T18:13:16.296Z,86.55
2022-11-03T18:14:16.325Z,86.65
2022-11-03T18:15:16.591Z,86.55
2022-11-03T18:16:23.948Z,86.79
2022-11-03T18:17:16.256Z,86.65
2022-11-03T18:18:16.317Z,86.96
2022-11-03T18:19:16.246Z,86.96
2022-11-03T18:20:16.235Z,86.44
2022-11-03T18:21:16.209Z,85.83
2022-11-03T18:22:16.212Z,85.73
2022-11-03T18:23:16.282Z,85.73
2022-11-03T18:24:16.183Z,85.83
2022-11-03T18:25:16.207Z,85.83
2022-11-03T18:26:16.467Z,86.04
2022-11-03T18:27:18.326Z,86.44
2022-11-03T18:28:17.177Z,85.94
2022-11-03T18:29:16.274Z,86.24
2022-11-03T18:30:16.313Z,86.65
2022-11-03T18:31:16.295Z,86.44
2022-11-03T18:32:16.123Z,86.35
2022-11-03T18:33:16.457Z,86.24
2022-11-03T18:34:16.130Z,85.73
2022-11-03T18:35:16.186Z,85.53
2022-11-03T18:36:16.214Z,85.42
2022-11-03T18:37:16.087Z,85.53
2022-11-03T18:38:16.063Z,85.12
2022-11-03T18:39:16.058Z,86.08
2022-11-03T18:40:16.103Z,85.12
2022-11-03T18:41:16.387Z,85.22
2022-11-03T18:42:16.085Z,85.26
2022-11-03T18:43:15.988Z,85.42
2022-11-03T18:44:16.058Z,85.36
2022-11-03T18:45:28.198Z,85.26
2022-11-03T18:46:16.105Z,85.67
2022-11-03T18:47:16.030Z,85.36
2022-11-03T18:48:20.110Z,84.75
2022-11-03T18:49:15.989Z,84.71
2022-11-03T18:50:16.038Z,84.91
2022-11-03T18:51:16.023Z,85.67
2022-11-03T18:52:17.439Z,85.06
2022-11-03T18:54:34.466Z,85.26
2022-11-03T18:55:34.278Z,85.26
2022-11-03T18:57:35.335Z,84.65
2022-11-03T18:59:44.955Z,84.44
2022-11-03T19:00:44.650Z,84.55
2022-11-03T19:01:44.846Z,84.44
2022-11-03T19:02:44.647Z,84.55
2022-11-03T19:03:44.521Z,84.20
2022-11-03T19:04:44.518Z,84.44
2022-11-03T19:05:44.537Z,84.34
2022-11-03T19:06:44.481Z,84.14
2022-11-03T19:07:44.464Z,84.85
2022-11-03T19:08:44.470Z,84.85
2022-11-03T19:09:44.525Z,84.69
2022-11-03T19:10:44.470Z,84.85
2022-11-03T19:11:44.493Z,84.75
2022-11-03T19:12:44.604Z,84.03
2022-11-03T19:13:44.431Z,84.85
2022-11-03T19:14:44.386Z,84.69
2022-11-03T19:15:44.461Z,84.79
2022-11-03T19:17:01.977Z,84.69
2022-11-03T19:17:45.391Z,84.99
2022-11-03T19:18:44.464Z,84.79
2022-11-03T19:19:44.427Z,84.38
2022-11-03T19:20:44.365Z,84.17
2022-11-03T19:21:44.408Z,84.34
2022-11-03T19:22:44.324Z,84.58
2022-11-03T19:23:47.853Z,84.48
2022-11-03T19:24:44.352Z,84.48
2022-11-03T19:25:44.315Z,84.55
2022-11-03T19:26:44.299Z,84.69
2022-11-03T19:27:51.863Z,84.79
2022-11-03T19:28:44.298Z,84.38
2022-11-03T19:29:44.313Z,84.38
2022-11-03T19:30:44.231Z,84.79
2022-11-03T19:31:44.242Z,84.69
2022-11-03T19:32:44.242Z,84.99
2022-11-03T19:33:44.218Z,84.93
2022-11-03T19:34:44.189Z,84.93
2022-11-03T19:35:44.204Z,84.11
2022-11-03T19:36:44.277Z,84.89
2022-11-03T19:37:44.283Z,84.58
2022-11-03T19:38:44.169Z,84.17
2022-11-03T19:39:44.158Z,84.48
2022-11-03T19:40:44.149Z,84.42
2022-11-03T19:41:44.127Z,84.22
2022-11-03T19:42:44.107Z,84.22
2022-11-03T19:43:44.130Z,84.07
2022-11-03T19:44:44.098Z,84.07
2022-11-03T19:45:44.086Z,83.87
2022-11-03T19:46:44.067Z,84.38
2022-11-03T19:47:57.683Z,84.83
2022-11-03T19:48:45.065Z,84.52
2022-11-03T19:49:44.084Z,84.72
2022-11-03T19:50:44.011Z,84.63
2022-11-03T19:51:53.670Z,84.83
2022-11-03T19:52:44.065Z,84.83
2022-11-03T19:53:47.139Z,84.83
2022-11-03T19:54:44.036Z,84.63
2022-11-03T19:55:54.643Z,84.72
2022-11-03T19:56:44.089Z,84.63
2022-11-03T19:58:55.743Z,84.72
2022-11-03T19:59:55.647Z,84.93
2022-11-03T20:02:09.573Z,85.14
2022-11-03T20:03:17.480Z,85.64
2022-11-03T20:05:02.044Z,85.34
2022-11-03T20:06:09.650Z,85.79
2022-11-03T20:07:02.088Z,85.48
2022-11-03T20:08:02.021Z,85.38
2022-11-03T20:09:02.008Z,85.17
2022-11-03T20:10:10.582Z,85.17
2022-11-03T20:11:10.657Z,85.48
2022-11-03T20:12:10.658Z,85.38
2022-11-03T20:13:13.874Z,85.48
2022-11-03T20:14:01.986Z,85.17
2022-11-03T20:15:12.065Z,85.85
2022-11-03T20:16:01.902Z,85.99
2022-11-03T20:17:02.024Z,86.30
2022-11-03T20:18:01.896Z,86.71
2022-11-03T20:19:01.934Z,86.96
2022-11-03T20:20:12.572Z,86.85
2022-11-03T20:21:01.883Z,86.96
2022-11-03T20:22:10.062Z,86.85
2022-11-03T20:24:14.305Z,87.37
2022-11-03T20:26:25.687Z,87.37
2022-11-03T20:27:35.120Z,87.37
2022-11-03T20:28:25.631Z,87.57
2022-11-03T20:29:26.955Z,86.96
2022-11-03T20:30:25.580Z,87.37
2022-11-03T20:31:25.571Z,87.26
2022-11-03T20:32:25.476Z,88.08
2022-11-03T20:35:48.295Z,87.26
2022-11-03T20:36:48.285Z,87.77
2022-11-03T20:37:48.180Z,87.88
2022-11-03T20:38:48.174Z,88.49
2022-11-03T20:39:48.162Z,88.59
2022-11-03T20:40:48.151Z,87.82
2022-11-03T20:41:48.199Z,88.49
2022-11-03T20:42:48.171Z,87.92
2022-11-03T20:43:48.114Z,88.94
2022-11-03T20:44:48.108Z,88.84
2022-11-03T20:45:48.088Z,88.94
2022-11-03T20:46:48.128Z,89.15
2022-11-03T20:47:56.846Z,89.15
2022-11-03T20:48:56.036Z,89.15
2022-11-03T20:49:48.121Z,89.15
2022-11-03T20:50:48.044Z,89.04
2022-11-03T20:51:48.155Z,89.15
2022-11-03T20:52:48.030Z,88.84
2022-11-03T20:53:48.086Z,89.04
2022-11-03T20:54:48.008Z,89.56
2022-11-03T20:55:48.023Z,89.81
2022-11-03T20:56:48.039Z,90.11
2022-11-03T20:57:48.043Z,90.01
2022-11-03T20:58:48.281Z,89.90
2022-11-03T20:59:47.959Z,90.32
2022-11-03T21:00:48.145Z,90.22
2022-11-03T21:01:58.944Z,90.42
2022-11-03T21:02:59.105Z,90.46
2022-11-03T21:04:03.362Z,90.56
2022-11-03T21:05:58.469Z,90.77
2022-11-03T21:08:10.744Z,90.46
2022-11-03T21:09:10.639Z,90.97
2022-11-03T21:10:23.702Z,90.91
2022-11-03T21:11:10.628Z,91.08
2022-11-03T21:13:23.988Z,91.42
2022-11-03T21:14:36.708Z,91.74
2022-11-03T21:16:35.565Z,92.14
2022-11-03T21:19:57.958Z,92.14
2022-11-03T21:21:10.930Z,91.94
2022-11-03T21:25:48.426Z,92.55
2022-11-03T21:28:26.468Z,92.29
2022-11-03T21:30:38.327Z,93.01
2022-11-03T21:32:50.982Z,93.16
2022-11-03T21:34:00.244Z,93.46
2022-11-03T21:36:14.742Z,93.57
2022-11-03T21:38:27.239Z,93.73
2022-11-03T21:39:37.058Z,93.63
2022-11-03T21:40:36.820Z,93.12
2022-11-03T21:41:35.889Z,93.32
2022-11-03T21:43:39.635Z,93.83
2022-11-03T21:44:39.543Z,93.12
2022-11-03T21:45:51.226Z,93.32
2022-11-03T21:47:31.985Z,93.83
2022-11-03T21:49:45.290Z,93.73
2022-11-03T21:50:53.848Z,93.32
2022-11-03T21:53:00.535Z,93.52
2022-11-03T21:54:10.895Z,93.52
2022-11-03T21:55:11.029Z,93.63
2022-11-03T21:56:14.335Z,93.93
2022-11-03T21:58:11.398Z,93.83
2022-11-03T22:00:22.775Z,93.52
2022-11-03T22:01:32.055Z,93.73
2022-11-03T22:02:30.819Z,93.87
2022-11-03T22:05:45.839Z,94.39
2022-11-03T22:06:53.315Z,94.49
2022-11-03T22:08:58.103Z,94.29
2022-11-03T22:11:09.574Z,95.21
2022-11-03T22:12:17.065Z,95.10
2022-11-03T22:13:21.048Z,95.01
2022-11-03T22:15:22.028Z,95.01
2022-11-03T22:16:31.961Z,94.70
2022-11-03T22:18:35.540Z,95.21
2022-11-03T22:20:48.149Z,95.31
2022-11-03T22:21:57.005Z,95.01
2022-11-03T22:22:55.828Z,95.01
2022-11-03T22:23:58.362Z,95.01
2022-11-03T22:24:55.675Z,95.10
2022-11-03T22:25:56.735Z,95.01
2022-11-03T22:26:57.994Z,94.34
2022-11-03T22:27:57.608Z,94.90
2022-11-03T22:28:57.255Z,94.65
2022-11-03T22:30:59.151Z,94.18
2022-11-03T22:32:08.999Z,95.31
2022-11-03T22:33:10.169Z,95.10
2022-11-03T22:34:07.593Z,95.10
2022-11-03T22:36:10.709Z,94.90
2022-11-03T22:38:22.119Z,95.72
2022-11-03T22:40:34.329Z,95.93
2022-11-03T22:42:45.857Z,96.23
2022-11-03T22:43:55.887Z,96.03
2022-11-03T22:44:45.783Z,95.72
2022-11-03T22:45:55.981Z,96.34
2022-11-03T22:47:57.889Z,96.14
2022-11-03T22:49:07.713Z,95.42
2022-11-03T22:51:10.135Z,96.23
2022-11-03T22:52:19.583Z,96.14
2022-11-03T22:53:18.577Z,96.23
2022-11-03T22:55:21.361Z,95.93
2022-11-03T22:56:30.998Z,95.62
2022-11-03T22:57:21.265Z,95.62
2022-11-03T22:58:22.702Z,95.93
2022-11-03T22:59:21.173Z,95.78
2022-11-03T23:00:21.188Z,96.03